Time;durP1;ratioP1;P1;durP2;ratioP2;P2;SDS_P1;SDS_P2;PMS_P1;PMS_P2;Temp;Humidity;BMP_temperature;BMP_pressure;BME280_temperature;BME280_humidity;BME280_pressure;Samples;Min_cycle;Max_cycle;Signal;HPM_P1;HPM_P2
2022/02/05 00:02:16;;;;;;;14.00;10.07;;;;;;;7.69;69.28;99198.84;5092521;28;20420;-48
2022/02/05 00:04:43;;;;;;;33.20;24.65;;;;;;;7.61;69.07;99204.09;5092533;28;20035;-49
2022/02/05 00:07:10;;;;;;;20.95;18.10;;;;;;;7.54;68.77;99208.34;5091038;28;20592;-50
2022/02/05 00:09:58;;;;;;;22.45;19.75;;;;;;;7.58;68.73;99207.84;5092481;28;20020;-48
2022/02/05 00:15:19;;;;;;;17.48;11.02;;;;;;;7.98;69.07;99206.06;5092348;28;20507;-48
2022/02/05 00:42:29;;;;;;;13.23;10.05;;;;;;;9.20;65.72;99198.34;5092043;28;20107;-49
2022/02/05 00:44:55;;;;;;;17.48;10.70;;;;;;;9.32;65.16;99200.53;5092074;28;20078;-49
2022/02/05 00:47:21;;;;;;;13.18;9.68;;;;;;;9.32;64.55;99203.16;5091839;28;20022;-49
2022/02/05 00:49:51;;;;;;;12.27;9.75;;;;;;;9.29;64.01;99198.28;5091349;28;20171;-49
2022/02/05 00:52:19;;;;;;;14.70;11.05;;;;;;;9.23;63.87;99201.59;5091884;28;20120;-49
2022/02/05 00:54:49;;;;;;;10.90;8.65;;;;;;;9.18;64.43;99207.38;5091853;28;20028;-49
2022/02/05 00:59:43;;;;;;;14.30;9.52;;;;;;;9.11;64.17;99206.47;5091789;28;20032;-50
2022/02/05 01:02:09;;;;;;;11.35;9.15;;;;;;;8.98;63.56;99213.13;5091800;28;20103;-49
2022/02/05 01:04:35;;;;;;;17.35;14.27;;;;;;;8.78;64.06;99206.75;5091815;28;20073;-50
2022/02/05 01:07:01;;;;;;;10.00;8.15;;;;;;;8.63;64.27;99213.72;5090282;28;20016;-49
2022/02/05 01:09:26;;;;;;;9.70;8.38;;;;;;;8.51;64.89;99214.13;5091757;28;20507;-49
2022/02/05 01:11:55;;;;;;;15.10;8.45;;;;;;;8.43;64.62;99216.81;5091600;28;20081;-50
2022/02/05 01:14:26;;;;;;;17.08;14.30;;;;;;;8.49;65.05;99217.91;5091701;28;20110;-49
2022/02/05 01:22:06;;;;;;;;;;;;;;;8.49;65.33;99226.59;5070379;28;20043;-48
2022/02/05 01:24:33;;;;;;;13.80;9.40;;;;;;;8.42;65.30;99230.88;5091656;28;19957;-49
2022/02/05 01:27:07;;;;;;;16.70;11.75;;;;;;;8.41;65.40;99234.47;5091479;28;20032;-49
2022/02/05 01:29:54;;;;;;;13.35;9.05;;;;;;;8.44;65.90;99221.03;5091660;28;20074;-50
2022/02/05 01:32:23;;;;;;;11.68;8.77;;;;;;;8.47;65.65;99223.31;5091155;28;20193;-48
2022/02/05 01:35:00;;;;;;;17.10;10.55;;;;;;;8.45;66.29;99235.75;5091554;28;20036;-49
2022/02/05 01:53:50;;;;;;;12.68;9.48;;;;;;;8.28;67.74;99235.00;5091284;28;20021;-49
2022/02/05 01:56:30;;;;;;;16.38;9.75;;;;;;;8.13;68.62;99234.91;5091318;28;20407;-49
2022/02/05 01:59:16;;;;;;;11.25;8.82;;;;;;;8.19;67.99;99239.47;5091291;28;20024;-48
2022/02/05 02:05:09;;;;;;;13.52;10.55;;;;;;;8.23;67.25;99247.78;5085986;28;20505;-48
2022/02/05 02:10:41;;;;;;;14.23;9.27;;;;;;;8.08;67.40;99239.81;5095021;28;20057;-48
2022/02/05 02:13:29;;;;;;;11.27;8.45;;;;;;;7.97;67.45;99235.00;5094732;28;20105;-49
2022/02/05 02:18:57;;;;;;;17.20;15.23;;;;;;;8.00;67.42;99237.25;5094627;28;20165;-49
2022/02/05 02:21:35;;;;;;;10.65;8.25;;;;;;;8.10;67.99;99240.47;5094615;28;20028;-49
2022/02/05 02:31:31;;;;;;;12.73;9.50;;;;;;;8.20;69.95;99243.69;5094313;28;20440;-49
2022/02/05 02:34:01;;;;;;;15.23;9.27;;;;;;;8.24;69.44;99240.75;5092751;28;20134;-49
2022/02/05 02:36:39;;;;;;;13.05;9.68;;;;;;;8.24;69.56;99240.75;5094175;28;20032;-48
2022/02/05 02:41:44;;;;;;;19.77;11.45;;;;;;;8.51;71.19;99235.06;5094091;28;20035;-49
2022/02/05 02:44:10;;;;;;;13.02;9.77;;;;;;;8.59;70.81;99239.41;5094115;28;20024;-49
2022/02/05 02:46:36;;;;;;;13.27;9.65;;;;;;;8.51;70.48;99235.06;5093873;28;20031;-50
2022/02/05 02:49:03;;;;;;;14.63;10.35;;;;;;;8.45;70.99;99235.75;5093958;28;20016;-49
2022/02/05 03:02:24;;;;;;;23.80;18.42;;;;;;;8.62;73.14;99246.94;5093777;28;20106;-48
2022/02/05 03:04:49;;;;;;;16.00;12.52;;;;;;;8.76;74.00;99248.78;5093644;28;20044;-49
2022/02/05 03:07:16;;;;;;;16.73;11.80;;;;;;;8.76;73.04;99253.22;5093762;28;20062;-48
2022/02/05 03:09:43;;;;;;;16.08;11.82;;;;;;;8.60;72.95;99254.13;5092236;28;20024;-49
2022/02/05 03:12:09;;;;;;;19.92;14.70;;;;;;;8.49;72.93;99257.97;5093043;28;20069;-49
2022/02/05 03:14:35;;;;;;;17.95;12.48;;;;;;;8.48;73.16;99256.31;5092127;28;20436;-50
2022/02/05 03:17:04;;;;;;;19.48;14.73;;;;;;;8.42;73.76;99257.03;5093408;28;20031;-48
2022/02/05 03:19:30;;;;;;;14.25;12.07;;;;;;;8.44;74.08;99252.44;5093337;28;20107;-49
2022/02/05 03:21:55;;;;;;;13.65;11.27;;;;;;;8.43;74.67;99249.97;5093320;28;20105;-48
2022/02/05 03:24:21;;;;;;;19.20;14.40;;;;;;;8.47;75.36;99253.88;5093259;28;20020;-49
2022/02/05 03:26:47;;;;;;;16.75;13.38;;;;;;;8.50;75.00;99258.78;5093162;28;20047;-49
2022/02/05 03:29:13;;;;;;;21.80;17.92;;;;;;;8.46;75.52;99267.97;5093215;28;20375;-49
2022/02/05 03:31:39;;;;;;;18.55;14.18;;;;;;;8.47;75.33;99259.94;5093119;28;20030;-48
2022/02/05 03:34:06;;;;;;;19.55;13.18;;;;;;;8.40;75.80;99266.81;5092923;28;20119;-48
2022/02/05 03:36:37;;;;;;;16.70;11.77;;;;;;;8.41;76.20;99265.88;5091706;28;20034;-49
2022/02/05 03:39:04;;;;;;;20.58;14.90;;;;;;;8.48;75.91;99272.03;5093082;28;20036;-48
2022/02/05 03:41:31;;;;;;;21.33;14.18;;;;;;;8.48;76.28;99272.03;5091540;28;20032;-48
2022/02/05 03:43:56;;;;;;;13.73;11.45;;;;;;;8.50;75.79;99264.81;5092910;28;20452;-49
2022/02/05 03:46:22;;;;;;;18.17;11.02;;;;;;;8.44;75.38;99262.09;5092770;28;20024;-49
2022/02/05 03:48:48;;;;;;;15.48;12.07;;;;;;;8.30;74.78;99261.78;5092763;28;20489;-49
2022/02/05 03:51:14;;;;;;;17.33;13.57;;;;;;;8.18;74.69;99266.56;5092741;28;20062;-48
2022/02/05 03:53:39;;;;;;;13.00;10.88;;;;;;;8.22;75.72;99277.50;5091387;28;20457;-49
2022/02/05 03:56:05;;;;;;;14.60;11.32;;;;;;;8.23;75.37;99276.53;5091370;28;20402;-48
2022/02/05 03:58:31;;;;;;;15.60;11.73;;;;;;;8.19;74.65;99289.13;5092623;28;20032;-48
2022/02/05 04:00:56;;;;;;;16.13;12.80;;;;;;;8.17;75.31;99291.09;5091282;28;20336;-48
2022/02/05 04:03:22;;;;;;;18.45;12.35;;;;;;;8.27;75.89;99296.13;5092596;28;20051;-49
2022/02/05 04:05:48;;;;;;;14.88;13.15;;;;;;;8.25;75.76;99295.50;5092439;28;20638;-47
2022/02/05 04:08:15;;;;;;;16.83;14.60;;;;;;;8.19;76.36;99296.16;5092513;28;20028;-48
2022/02/05 04:10:48;;;;;;;19.98;15.25;;;;;;;8.07;76.34;99295.72;5092497;28;20020;-48
2022/02/05 04:18:44;;;;;;;23.05;17.15;;;;;;;7.98;77.85;99300.16;5092650;28;20210;-48
2022/02/05 04:21:10;;;;;;;19.80;15.05;;;;;;;7.92;77.90;99307.84;5092305;28;20572;-48
2022/02/05 04:23:36;;;;;;;19.52;15.07;;;;;;;7.79;78.18;99314.41;5092094;28;20516;-47
2022/02/05 04:26:01;;;;;;;19.52;14.77;;;;;;;7.80;78.38;99315.22;5091734;28;20020;-48
2022/02/05 04:28:28;;;;;;;20.80;14.30;;;;;;;7.88;78.49;99322.22;5092137;28;20028;-49
2022/02/05 04:30:53;;;;;;;35.45;30.23;;;;;;;7.99;79.33;99333.16;5092120;28;20031;-48
2022/02/05 04:33:19;;;;;;;19.02;16.98;;;;;;;8.12;79.46;99344.88;5091681;28;20048;-48
2022/02/05 04:35:45;;;;;;;16.90;14.40;;;;;;;8.08;78.63;99341.78;5092025;28;20028;-48
2022/02/05 04:38:11;;;;;;;20.38;15.05;;;;;;;8.16;79.36;99341.75;5092005;28;20027;-47
2022/02/05 04:40:48;;;;;;;20.45;14.65;;;;;;;8.32;79.31;99333.03;5091923;28;20028;-48
2022/02/05 04:46:31;;;;;;;19.27;14.30;;;;;;;8.66;79.09;99349.44;5091891;28;20081;-48
2022/02/05 04:52:11;;;;;;;31.55;27.20;;;;;;;8.38;78.09;99360.31;5091923;28;20047;-48
2022/02/05 05:02:37;;;;;;;14.93;11.07;;;;;;;8.23;77.92;99375.06;5091747;28;20024;-47
2022/02/05 05:05:37;;;;;;;25.80;11.52;;;;;;;8.32;78.79;99377.50;5091784;28;20034;-47
2022/02/05 05:11:19;;;;;;;17.60;15.73;;;;;;;8.43;78.53;99373.75;5091757;28;20027;-48
2022/02/05 05:21:38;;;;;;;14.48;8.80;;;;;;;8.31;77.87;99385.50;5091636;28;20047;-48
2022/02/05 05:24:03;;;;;;;15.50;11.15;;;;;;;8.44;77.96;99387.63;5091609;28;20016;-48
2022/02/05 05:26:29;;;;;;;6.15;3.65;;;;;;;8.43;76.19;99392.06;5091470;28;20029;-48
2022/02/05 05:28:55;;;;;;;9.20;4.80;;;;;;;8.15;74.58;99397.66;5091513;28;20460;-49
2022/02/05 05:31:21;;;;;;;11.05;5.50;;;;;;;7.86;76.37;99397.38;5091488;28;20024;-50
2022/02/05 05:33:46;;;;;;;15.45;4.38;;;;;;;7.84;77.68;99407.16;5091324;28;20052;-50
2022/02/05 05:36:12;;;;;;;9.55;4.40;;;;;;;7.75;78.28;99408.97;5093324;28;20551;-50
2022/02/05 05:38:38;;;;;;;8.55;3.03;;;;;;;7.69;77.92;99409.63;5095646;28;20451;-50
2022/02/05 05:41:03;;;;;;;7.93;2.85;;;;;;;7.48;77.17;99425.78;5095301;28;20024;-49
2022/02/05 05:51:18;;;;;;;7.28;2.78;;;;;;;7.19;79.34;99432.25;5095105;28;20082;-50
2022/02/05 05:53:44;;;;;;;7.50;3.13;;;;;;;7.24;79.18;99429.16;5095119;28;20024;-50
2022/02/05 05:56:11;;;;;;;8.60;2.38;;;;;;;7.27;78.88;99432.28;5095031;28;20516;-50
2022/02/05 05:58:38;;;;;;;7.18;2.33;;;;;;;7.25;78.57;99434.25;5094968;28;20031;-50
2022/02/05 06:01:04;;;;;;;6.25;2.50;;;;;;;7.27;79.50;99440.13;5094936;28;20024;-50
2022/02/05 06:03:30;;;;;;;7.32;3.00;;;;;;;7.30;79.53;99444.19;5093544;28;20042;-49
2022/02/05 06:05:56;;;;;;;21.05;4.15;;;;;;;7.26;79.44;99448.91;5094787;28;20055;-50
2022/02/05 06:08:21;;;;;;;13.77;2.85;;;;;;;7.13;79.60;99451.19;5094777;28;20466;-50
2022/02/05 06:10:47;;;;;;;9.48;2.38;;;;;;;7.15;80.59;99452.66;5094788;28;20020;-51
2022/02/05 06:13:13;;;;;;;17.13;3.13;;;;;;;7.09;80.19;99450.66;5094677;28;20028;-50
2022/02/05 06:15:41;;;;;;;31.52;4.63;;;;;;;7.09;79.79;99447.25;5093317;28;20039;-51
2022/02/05 06:18:09;;;;;;;81.40;50.85;;;;;;;7.04;80.38;99452.94;5094615;28;20089;-51
2022/02/05 06:20:36;;;;;;;16.83;10.07;;;;;;;7.03;79.34;99450.50;5094594;28;20020;-50
2022/02/05 06:23:01;;;;;;;7.25;4.65;;;;;;;6.90;79.80;99454.38;5094657;28;20401;-50
2022/02/05 06:25:27;;;;;;;10.95;2.42;;;;;;;6.77;79.84;99456.59;5093118;28;20027;-51
2022/02/05 06:27:53;;;;;;;5.15;2.22;;;;;;;6.77;79.96;99462.63;5094383;28;20023;-50
2022/02/05 06:30:19;;;;;;;4.47;2.05;;;;;;;6.75;79.65;99467.19;5094396;28;20031;-50
2022/02/05 06:32:44;;;;;;;11.63;2.83;;;;;;;6.82;79.56;99467.34;5094089;28;20522;-50
2022/02/05 06:35:11;;;;;;;10.32;2.40;;;;;;;6.82;79.44;99469.97;5094269;28;20105;-50
2022/02/05 06:37:38;;;;;;;6.80;2.40;;;;;;;6.86;79.09;99470.47;5094262;28;20182;-50
2022/02/05 06:40:06;;;;;;;10.07;2.42;;;;;;;6.87;79.30;99470.31;5092839;28;20030;-50
2022/02/05 06:42:31;;;;;;;8.35;1.83;;;;;;;6.91;79.24;99474.25;5094149;28;20017;-49
2022/02/05 06:44:57;;;;;;;11.95;2.50;;;;;;;6.95;78.80;99477.38;5094123;28;20031;-50
2022/02/05 06:47:23;;;;;;;7.50;1.90;;;;;;;6.98;78.91;99477.88;5093110;28;20032;-50
2022/02/05 06:49:48;;;;;;;7.30;2.35;;;;;;;7.03;78.30;99480.00;5094292;28;20028;-50
2022/02/05 06:52:14;;;;;;;5.75;1.80;;;;;;;7.15;77.89;99481.34;5094001;28;20023;-50
2022/02/05 06:54:40;;;;;;;8.15;2.08;;;;;;;7.22;77.15;99483.34;5093914;28;20024;-48
2022/02/05 06:57:06;;;;;;;6.65;1.70;;;;;;;7.30;77.19;99488.56;5092480;28;20028;-49
2022/02/05 06:59:31;;;;;;;6.13;2.20;;;;;;;7.42;76.97;99484.69;5093844;28;20111;-49
2022/02/05 07:01:57;;;;;;;5.72;2.10;;;;;;;7.43;76.05;99491.56;5092426;28;20073;-48
2022/02/05 07:04:25;;;;;;;6.50;1.80;;;;;;;7.45;75.74;99500.06;5093654;28;20016;-49
2022/02/05 07:06:54;;;;;;;7.22;1.80;;;;;;;7.46;75.92;99503.47;5093590;28;20027;-48
2022/02/05 07:09:26;;;;;;;4.03;1.75;;;;;;;7.49;75.30;99503.97;5093580;28;20028;-49
2022/02/05 07:11:52;;;;;;;9.88;2.47;;;;;;;7.51;74.57;99509.84;5093590;28;20036;-48
2022/02/05 07:14:22;;;;;;;9.38;2.80;;;;;;;7.56;74.44;99507.56;5093479;28;20509;-48
2022/02/05 07:17:02;;;;;;;6.82;1.83;;;;;;;7.69;73.73;99512.34;5093493;28;20118;-48
2022/02/05 07:20:21;;;;;;;5.35;1.63;;;;;;;7.65;73.06;99513.63;5093491;28;20036;-48
2022/02/05 07:22:16;;;;;;;6.82;2.22;;;;;;;7.66;72.62;99514.44;5090092;28;20452;-48
2022/02/05 07:30:18;;;;;;;7.15;2.20;;;;;;;7.97;72.36;99522.50;5093192;28;20075;-48
2022/02/05 07:32:44;;;;;;;7.25;1.50;;;;;;;8.07;70.86;99523.16;5092895;28;20072;-47
2022/02/05 07:35:09;;;;;;;4.47;1.38;;;;;;;8.17;70.66;99529.03;5093104;28;20052;-49
2022/02/05 07:37:35;;;;;;;4.70;1.50;;;;;;;8.19;70.55;99523.66;5093126;28;20058;-48
2022/02/05 07:40:01;;;;;;;7.65;1.67;;;;;;;8.22;69.31;99523.31;5092964;28;20504;-49
2022/02/05 07:42:27;;;;;;;6.72;1.80;;;;;;;8.15;68.71;99532.81;5092985;28;20032;-47
2022/02/05 07:44:52;;;;;;;6.03;2.80;;;;;;;8.03;69.04;99536.69;5091588;28;20490;-48
2022/02/05 07:47:21;;;;;;;9.90;2.70;;;;;;;7.95;69.59;99537.53;5091518;28;20444;-48
2022/02/05 07:49:47;;;;;;;5.03;1.40;;;;;;;7.88;68.36;99553.03;5092907;28;20048;-49
2022/02/05 07:52:13;;;;;;;10.80;1.85;;;;;;;7.80;68.78;99547.78;5092750;28;20059;-48
2022/02/05 07:54:39;;;;;;;8.95;2.15;;;;;;;7.84;68.50;99554.31;5092769;28;20016;-48
2022/02/05 07:57:05;;;;;;;7.75;1.77;;;;;;;7.85;69.16;99550.75;5093025;28;20030;-48
2022/02/05 07:59:32;;;;;;;7.68;1.40;;;;;;;7.86;68.18;99551.56;5091361;28;20020;-47
2022/02/05 08:01:57;;;;;;;5.82;1.60;;;;;;;7.84;68.04;99559.53;5091275;28;20039;-48
2022/02/05 08:04:23;;;;;;;6.40;2.58;;;;;;;7.76;67.67;99555.13;5091290;28;20017;-48
2022/02/05 08:06:50;;;;;;;4.82;1.33;;;;;;;7.82;67.34;99558.88;5092429;28;20027;-50
2022/02/05 08:10:04;;;;;;;2.70;1.40;;;;;;;7.83;67.56;99571.00;5092452;28;20020;-48
2022/02/05 08:12:07;;;;;;;8.77;1.40;;;;;;;7.71;67.47;99573.09;5088240;28;20112;-48
2022/02/05 08:14:36;;;;;;;7.07;2.20;;;;;;;7.94;67.68;99578.50;5092463;28;20028;-48
2022/02/05 08:17:08;;;;;;;12.65;2.15;;;;;;;8.40;67.60;99575.44;5092329;28;20035;-48
2022/02/05 08:19:33;;;;;;;4.57;1.80;;;;;;;8.93;66.60;99570.66;5092421;28;20066;-49
2022/02/05 08:21:59;;;;;;;4.70;1.55;;;;;;;9.08;65.28;99566.34;5092297;28;20056;-48
2022/02/05 08:24:25;;;;;;;23.30;17.90;;;;;;;8.95;64.10;99581.75;5092253;28;20051;-48
2022/02/05 08:26:50;;;;;;;28.52;25.63;;;;;;;8.86;64.69;99577.56;5092087;28;20043;-49
2022/02/05 08:29:18;;;;;;;43.33;35.42;;;;;;;8.79;64.91;99567.75;5092212;28;20051;-48
2022/02/05 08:31:45;;;;;;;30.67;27.50;;;;;;;8.82;64.42;99571.00;5092375;28;20036;-48
2022/02/05 08:34:11;;;;;;;5.18;2.90;;;;;;;8.71;64.63;99574.78;5091893;28;20054;-48
2022/02/05 08:36:45;;;;;;;17.10;8.63;;;;;;;8.72;64.41;99569.38;5092042;28;20104;-48
2022/02/05 08:39:12;;;;;;;15.55;10.23;;;;;;;8.76;63.24;99567.25;5092102;28;20517;-48
2022/02/05 08:41:38;;;;;;;6.82;2.80;;;;;;;8.79;63.59;99578.22;5091981;28;20016;-48
2022/02/05 08:44:05;;;;;;;4.00;1.85;;;;;;;8.78;63.20;99573.16;5073804;28;20088;-49
2022/02/05 08:46:31;;;;;;;7.60;1.40;;;;;;;8.80;62.89;99573.78;5090876;28;20024;-48
2022/02/05 08:48:56;;;;;;;7.40;1.40;;;;;;;8.80;61.43;99569.38;5090611;28;20027;-48
2022/02/05 08:51:22;;;;;;;5.40;1.60;;;;;;;8.67;60.90;99566.47;5090583;28;20020;-47
2022/02/05 08:53:48;;;;;;;4.30;1.58;;;;;;;8.34;61.04;99568.25;5091877;28;20028;-49
2022/02/05 08:56:15;;;;;;;6.05;1.63;;;;;;;7.91;61.72;99570.19;5091836;28;20016;-47
2022/02/05 08:58:41;;;;;;;4.60;1.52;;;;;;;7.67;62.94;99566.53;5091879;28;20024;-48
2022/02/05 09:04:14;;;;;;;5.32;1.88;;;;;;;8.12;62.33;99586.22;5079241;28;20032;-49
2022/02/05 09:06:41;;;;;;;3.80;1.77;;;;;;;8.37;61.29;99587.06;5091694;28;20073;-47
2022/02/05 09:09:10;;;;;;;4.28;1.70;;;;;;;8.62;61.60;99583.63;5091772;28;20164;-48
2022/02/05 09:11:46;;;;;;;3.88;1.40;;;;;;;9.48;62.47;99580.28;5094499;28;20016;-49
2022/02/05 09:14:28;;;;;;;8.23;3.55;;;;;;;10.37;57.83;99593.84;5095884;28;20032;-49
2022/02/05 09:16:54;;;;;;;9.07;2.40;;;;;;;10.50;57.36;99590.63;5094744;28;20036;-48
2022/02/05 09:19:19;;;;;;;4.28;3.45;;;;;;;10.65;57.39;99585.41;5095743;28;20102;-50
2022/02/05 09:21:46;;;;;;;6.65;1.83;;;;;;;10.64;55.38;99586.38;5095641;28;20030;-49
2022/02/05 09:24:12;;;;;;;7.57;1.40;;;;;;;10.50;55.63;99584.53;5094320;28;20050;-49
2022/02/05 09:26:43;;;;;;;4.40;1.55;;;;;;;10.42;56.03;99590.66;5094183;28;20577;-50
2022/02/05 09:29:33;;;;;;;4.50;1.70;;;;;;;10.54;56.05;99598.94;5096172;28;20076;-48
2022/02/05 09:31:59;;;;;;;5.40;1.52;;;;;;;10.80;55.51;99590.66;5095576;28;20024;-48
2022/02/05 09:34:24;;;;;;;5.43;1.40;;;;;;;11.02;54.45;99588.16;5095272;28;20084;-49
2022/02/05 09:36:50;;;;;;;14.25;2.47;;;;;;;11.10;53.50;99603.81;5095383;28;20028;-49
2022/02/05 09:39:17;;;;;;;4.97;1.55;;;;;;;10.73;53.13;99595.81;5095454;28;20034;-48
2022/02/05 09:41:44;;;;;;;6.45;1.60;;;;;;;10.68;52.89;99600.78;5095349;28;20077;-48
2022/02/05 09:44:11;;;;;;;3.88;1.20;;;;;;;10.71;54.08;99597.81;5095273;28;20039;-48
2022/02/05 09:46:37;;;;;;;4.38;1.30;;;;;;;10.79;53.37;99596.94;5095146;28;20054;-49
2022/02/05 09:49:04;;;;;;;7.50;1.63;;;;;;;10.71;53.89;99610.94;5095212;28;20077;-49
2022/02/05 09:51:36;;;;;;;5.95;1.40;;;;;;;11.12;53.69;99613.16;5095188;28;20027;-49
2022/02/05 09:54:04;;;;;;;7.50;1.58;;;;;;;11.51;51.98;99611.22;5095148;28;20028;-49
2022/02/05 09:56:33;;;;;;;8.02;1.52;;;;;;;11.53;51.10;99619.75;5095061;28;20154;-49
2022/02/05 09:59:01;;;;;;;5.65;1.40;;;;;;;11.65;51.31;99620.09;5094989;28;20016;-49
2022/02/05 10:01:30;;;;;;;3.58;1.30;;;;;;;11.88;49.53;99626.03;5093621;28;20513;-49
2022/02/05 10:03:57;;;;;;;7.03;1.30;;;;;;;11.58;49.24;99620.03;5094941;28;20028;-50
2022/02/05 10:06:29;;;;;;;8.80;1.50;;;;;;;12.57;50.52;99617.59;5094709;28;20031;-50
2022/02/05 10:09:05;;;;;;;8.82;2.08;;;;;;;14.75;46.42;99611.81;5094892;28;20043;-49
2022/02/05 10:11:48;;;;;;;6.03;1.60;;;;;;;15.91;44.02;99611.03;5094770;28;20116;-50
2022/02/05 10:14:17;;;;;;;3.17;0.95;;;;;;;16.62;41.45;99608.31;5094790;28;20478;-50
2022/02/05 10:16:50;;;;;;;4.50;1.50;;;;;;;17.08;39.01;99610.59;5094651;28;20027;-49
2022/02/05 10:19:17;;;;;;;6.28;1.83;;;;;;;16.10;38.93;99611.16;5094697;28;20028;-50
2022/02/05 10:21:42;;;;;;;5.85;1.55;;;;;;;16.08;39.10;99608.72;5092432;28;20030;-51
2022/02/05 10:24:10;;;;;;;3.60;1.30;;;;;;;15.81;38.55;99607.25;5094068;28;20102;-49
2022/02/05 10:26:44;;;;;;;5.18;1.17;;;;;;;16.38;38.18;99608.13;5094421;28;20034;-49
2022/02/05 10:29:13;;;;;;;4.35;1.02;;;;;;;16.92;36.63;99611.13;5093093;28;20509;-51
2022/02/05 10:32:14;;;;;;;3.40;1.13;;;;;;;17.25;36.80;99612.66;5094372;28;20020;-50
2022/02/05 10:35:36;;;;;;;3.28;1.00;;;;;;;16.91;37.04;99618.28;5094357;28;20036;-50
2022/02/05 10:37:47;;;;;;;5.80;1.40;;;;;;;18.01;35.84;99616.63;5090988;28;20098;-49
2022/02/05 10:40:20;;;;;;;3.67;1.30;;;;;;;18.65;33.20;99603.59;5094251;28;20028;-49
2022/02/05 10:43:01;;;;;;;7.13;1.60;;;;;;;18.67;32.40;99612.16;5094228;28;20035;-50
2022/02/05 10:45:48;;;;;;;3.78;1.20;;;;;;;19.04;32.95;99619.91;5094158;28;20035;-50
2022/02/05 10:48:22;;;;;;;4.97;1.10;;;;;;;19.46;32.50;99625.06;5092600;28;20379;-50
2022/02/05 10:50:51;;;;;;;6.30;1.40;;;;;;;20.02;30.71;99613.88;5092600;28;20030;-51
2022/02/05 11:07:06;;;;;;;7.97;1.48;;;;;;;16.68;33.07;99618.06;5093786;28;20059;-49
2022/02/05 11:09:33;;;;;;;2.83;1.10;;;;;;;16.35;33.24;99603.25;5093713;28;20512;-49
2022/02/05 11:20:18;;;;;;;6.07;1.58;;;;;;;16.31;32.97;99596.75;5093509;28;20481;-49
2022/02/05 11:22:55;;;;;;;4.82;1.17;;;;;;;16.54;33.20;99590.84;5093492;28;20202;-49
2022/02/05 11:25:22;;;;;;;5.45;1.13;;;;;;;16.78;32.19;99589.22;5093341;28;20054;-49
2022/02/05 11:27:53;;;;;;;4.25;1.65;;;;;;;16.93;31.18;99588.91;5093277;28;20206;-49
2022/02/05 11:30:31;;;;;;;6.07;1.42;;;;;;;17.18;31.22;99591.50;5093290;28;20020;-49
2022/02/05 11:33:02;;;;;;;5.32;1.45;;;;;;;17.31;30.23;99574.63;5092686;28;20557;-49
2022/02/05 11:35:33;;;;;;;4.63;1.27;;;;;;;17.20;30.82;99589.44;5093248;28;20047;-49
2022/02/05 11:38:02;;;;;;;3.90;1.25;;;;;;;17.46;30.94;99592.81;5093192;28;20028;-49
2022/02/05 11:40:47;;;;;;;4.18;1.58;;;;;;;17.68;30.22;99593.94;5093100;28;20027;-49
2022/02/05 11:43:45;;;;;;;7.90;2.00;;;;;;;18.13;30.51;99593.56;5091772;28;20401;-49
2022/02/05 11:46:16;;;;;;;4.82;1.05;;;;;;;17.97;28.85;99583.59;5092276;28;20032;-49
2022/02/05 11:48:44;;;;;;;3.47;1.23;;;;;;;17.81;29.98;99595.63;5092914;28;20039;-50
2022/02/05 11:51:17;;;;;;;4.22;1.27;;;;;;;18.25;29.90;99590.13;5091545;28;20024;-50
2022/02/05 11:53:55;;;;;;;4.30;1.13;;;;;;;18.73;29.09;99581.16;5092863;28;20032;-50
2022/02/05 11:56:37;;;;;;;3.88;1.10;;;;;;;18.81;29.20;99588.00;5092744;28;20024;-49
2022/02/05 11:59:03;;;;;;;3.42;1.00;;;;;;;19.07;28.34;99565.41;5092784;28;20020;-50
2022/02/05 12:01:38;;;;;;;5.63;1.55;;;;;;;18.64;28.23;99587.88;5091362;28;20024;-49
2022/02/05 12:04:22;;;;;;;2.87;1.03;;;;;;;18.62;29.15;99580.13;5092731;28;20028;-50
2022/02/05 12:07:06;;;;;;;4.10;1.17;;;;;;;18.73;29.19;99586.47;5092469;28;20270;-49
2022/02/05 12:09:42;;;;;;;3.47;1.13;;;;;;;18.72;27.23;99587.53;5092580;28;20039;-50
2022/02/05 12:12:26;;;;;;;4.35;1.13;;;;;;;18.88;28.82;99570.88;5092542;28;20028;-50
2022/02/05 12:15:13;;;;;;;10.10;1.38;;;;;;;19.02;28.04;99570.66;5091120;28;20028;-50
2022/02/05 12:18:38;;;;;;;5.35;1.40;;;;;;;18.96;28.58;99575.06;5092467;28;20137;-49
2022/02/05 12:21:01;;;;;;;3.30;1.02;;;;;;;19.13;28.23;99569.81;5088136;28;20566;-50
2022/02/05 12:26:25;;;;;;;;;;;;;;;18.75;28.42;99574.56;5092480;28;20406;-50
2022/02/05 12:28:52;;;;;;;5.68;1.52;;;;;;;18.21;28.50;99560.56;5092235;28;19966;-49
2022/02/05 12:31:18;;;;;;;3.40;1.52;;;;;;;17.80;28.40;99572.75;5092165;28;20040;-49
2022/02/05 12:33:48;;;;;;;3.58;1.10;;;;;;;17.85;28.65;99575.59;5091914;28;20566;-50
2022/02/05 12:36:45;;;;;;;3.85;1.30;;;;;;;18.09;29.27;99581.78;5092104;28;20031;-49
2022/02/05 12:39:16;;;;;;;6.80;1.00;;;;;;;18.38;27.93;99566.00;5092075;28;20039;-50
2022/02/05 12:41:52;;;;;;;9.27;1.58;;;;;;;17.88;28.17;99569.81;5091996;28;20451;-49
2022/02/05 12:44:24;;;;;;;4.25;1.27;;;;;;;17.69;28.56;99558.41;5092023;28;20035;-49
2022/02/05 12:46:56;;;;;;;7.00;1.48;;;;;;;17.35;27.68;99557.22;5091305;28;20026;-48
2022/02/05 12:49:26;;;;;;;4.20;1.15;;;;;;;16.87;28.44;99561.44;5091970;28;20034;-49
2022/02/05 12:51:53;;;;;;;5.88;1.80;;;;;;;16.64;29.46;99554.09;5091921;28;20082;-49
2022/02/05 12:54:26;;;;;;;6.80;1.40;;;;;;;16.89;29.78;99567.31;5091872;28;20024;-49
2022/02/05 12:56:54;;;;;;;5.82;1.30;;;;;;;16.95;29.72;99561.13;5091838;28;20032;-49
2022/02/05 12:59:27;;;;;;;4.68;0.98;;;;;;;16.88;29.64;99560.41;5091860;28;20501;-49
2022/02/05 13:02:00;;;;;;;10.00;1.38;;;;;;;16.73;30.50;99559.91;5091848;28;20039;-49
2022/02/05 13:04:35;;;;;;;9.30;1.85;;;;;;;16.73;30.14;99557.25;5091798;28;20374;-50
2022/02/05 13:07:18;;;;;;;5.28;1.58;;;;;;;16.75;29.80;99556.00;5091671;28;20030;-48
2022/02/05 13:09:50;;;;;;;4.70;2.40;;;;;;;16.46;30.44;99559.31;5091797;28;20103;-49
2022/02/05 13:12:20;;;;;;;7.68;1.52;;;;;;;16.44;29.55;99562.22;5091760;28;20031;-50
2022/02/05 13:15:03;;;;;;;6.15;1.30;;;;;;;16.44;30.08;99561.38;5091717;28;20028;-49
2022/02/05 13:18:43;;;;;;;6.80;1.13;;;;;;;16.50;30.47;99558.69;5091752;28;20040;-49
2022/02/05 13:28:50;;;;;;;4.03;1.50;;;;;;;16.20;29.93;99555.06;5091668;28;20262;-49
2022/02/05 13:36:41;;;;;;;10.55;1.83;;;;;;;15.91;31.59;99546.72;5091479;28;20032;-49
2022/02/05 13:41:59;;;;;;;5.78;1.52;;;;;;;15.68;31.63;99534.00;5091454;28;20040;-49
2022/02/05 13:44:52;;;;;;;7.40;1.83;;;;;;;15.34;32.05;99547.38;5091483;28;20139;-49
2022/02/05 13:47:18;;;;;;;7.15;1.45;;;;;;;15.20;32.45;99542.38;5091379;28;20081;-49
2022/02/05 13:50:08;;;;;;;7.10;1.23;;;;;;;15.07;31.71;99537.91;5090018;28;20432;-49
2022/02/05 13:52:38;;;;;;;10.43;1.52;;;;;;;14.93;32.43;99534.50;5091369;28;20409;-50
2022/02/05 13:55:29;;;;;;;5.63;1.05;;;;;;;14.96;32.64;99542.84;5091349;28;20432;-49
2022/02/05 13:58:08;;;;;;;5.15;1.35;;;;;;;14.78;32.16;99546.13;5093334;28;20035;-49
2022/02/05 14:00:42;;;;;;;7.15;1.42;;;;;;;14.51;33.55;99544.53;5095027;28;20016;-49
2022/02/05 14:03:09;;;;;;;6.30;1.23;;;;;;;14.35;33.73;99540.47;5093625;28;20088;-50
2022/02/05 14:05:57;;;;;;;4.82;1.08;;;;;;;14.16;34.03;99544.72;5094919;28;20097;-49
2022/02/05 14:08:34;;;;;;;7.25;1.65;;;;;;;13.81;34.69;99542.25;5094883;28;20043;-49
2022/02/05 14:11:03;;;;;;;9.25;1.40;;;;;;;13.53;35.21;99547.66;5093537;28;20568;-49
2022/02/05 14:13:30;;;;;;;5.65;1.63;;;;;;;13.38;35.83;99551.25;5094755;28;20382;-49
2022/02/05 14:15:58;;;;;;;7.10;1.95;;;;;;;13.13;35.80;99550.91;5093364;28;20371;-50
2022/02/05 14:18:26;;;;;;;5.03;1.40;;;;;;;12.90;35.83;99556.47;5094691;28;20551;-48
2022/02/05 14:20:55;;;;;;;6.60;1.45;;;;;;;12.66;36.22;99551.66;5093326;28;20032;-49
2022/02/05 14:23:23;;;;;;;8.25;1.58;;;;;;;12.49;37.52;99559.81;5094602;28;20596;-48
2022/02/05 14:26:03;;;;;;;6.97;1.48;;;;;;;12.22;37.86;99550.09;5094747;28;20082;-49
2022/02/05 14:28:45;;;;;;;6.57;2.00;;;;;;;12.01;38.26;99554.34;5094449;28;20024;-49
2022/02/05 14:31:19;;;;;;;6.38;1.35;;;;;;;11.91;38.33;99561.75;5094455;28;20077;-49
2022/02/05 14:34:08;;;;;;;5.40;1.20;;;;;;;11.73;38.69;99548.97;5094206;28;20046;-49
2022/02/05 14:41:56;;;;;;;6.57;1.50;;;;;;;11.24;39.49;99560.97;5094295;28;20039;-49
2022/02/05 14:44:22;;;;;;;6.22;1.10;;;;;;;11.20;39.76;99557.88;5094161;28;20020;-49
2022/02/05 14:46:48;;;;;;;8.27;1.40;;;;;;;11.23;39.69;99559.34;5092674;28;20409;-49